sensor_id;sensor_type;location;lat;lon;timestamp;P1;durP1;ratioP1;P2;durP2;ratioP2
14116;SDS011;7137;51.436;6.544;2024-01-06T00:02:40;13.67;;;12.30;;
14116;SDS011;7137;51.436;6.544;2024-01-06T00:05:41;13.03;;;11.63;;
14116;SDS011;7137;51.436;6.544;2024-01-06T00:08:43;12.93;;;11.30;;
14116;SDS011;7137;51.436;6.544;2024-01-06T00:11:46;13.23;;;11.83;;
14116;SDS011;7137;51.436;6.544;2024-01-06T00:14:47;13.37;;;11.97;;
14116;SDS011;7137;51.436;6.544;2024-01-06T00:17:49;12.93;;;11.53;;
14116;SDS011;7137;51.436;6.544;2024-01-06T00:20:50;14.00;;;11.73;;
14116;SDS011;7137;51.436;6.544;2024-01-06T00:23:52;22.53;;;15.57;;
14116;SDS011;7137;51.436;6.544;2024-01-06T00:26:57;22.13;;;15.47;;
14116;SDS011;7137;51.436;6.544;2024-01-06T00:29:58;25.20;;;16.53;;
14116;SDS011;7137;51.436;6.544;2024-01-06T00:33:01;24.67;;;15.77;;
14116;SDS011;7137;51.436;6.544;2024-01-06T00:36:03;20.00;;;14.53;;
14116;SDS011;7137;51.436;6.544;2024-01-06T00:39:05;16.43;;;14.17;;
14116;SDS011;7137;51.436;6.544;2024-01-06T00:42:08;16.70;;;14.93;;
14116;SDS011;7137;51.436;6.544;2024-01-06T00:45:09;17.13;;;15.30;;
14116;SDS011;7137;51.436;6.544;2024-01-06T00:48:11;17.10;;;15.30;;
14116;SDS011;7137;51.436;6.544;2024-01-06T00:51:13;17.40;;;15.60;;
14116;SDS011;7137;51.436;6.544;2024-01-06T00:54:14;18.57;;;16.63;;
14116;SDS011;7137;51.436;6.544;2024-01-06T00:57:17;18.03;;;16.00;;
14116;SDS011;7137;51.436;6.544;2024-01-06T01:00:24;19.73;;;17.63;;
14116;SDS011;7137;51.436;6.544;2024-01-06T01:03:27;20.03;;;17.30;;
14116;SDS011;7137;51.436;6.544;2024-01-06T01:06:28;20.57;;;18.30;;
14116;SDS011;7137;51.436;6.544;2024-01-06T01:09:30;19.63;;;17.53;;
14116;SDS011;7137;51.436;6.544;2024-01-06T01:12:33;19.00;;;16.97;;
14116;SDS011;7137;51.436;6.544;2024-01-06T01:15:34;17.33;;;15.57;;
14116;SDS011;7137;51.436;6.544;2024-01-06T01:18:36;19.33;;;17.33;;
14116;SDS011;7137;51.436;6.544;2024-01-06T01:21:37;19.53;;;17.53;;
14116;SDS011;7137;51.436;6.544;2024-01-06T01:24:39;21.33;;;19.03;;
14116;SDS011;7137;51.436;6.544;2024-01-06T01:27:42;21.07;;;18.87;;
14116;SDS011;7137;51.436;6.544;2024-01-06T01:30:43;20.27;;;17.97;;
14116;SDS011;7137;51.436;6.544;2024-01-06T01:33:45;19.63;;;17.60;;
14116;SDS011;7137;51.436;6.544;2024-01-06T01:36:46;18.80;;;16.80;;
14116;SDS011;7137;51.436;6.544;2024-01-06T01:39:48;19.60;;;17.33;;
14116;SDS011;7137;51.436;6.544;2024-01-06T01:42:51;19.40;;;17.30;;
14116;SDS011;7137;51.436;6.544;2024-01-06T01:45:53;21.03;;;18.57;;
14116;SDS011;7137;51.436;6.544;2024-01-06T01:48:55;20.53;;;17.50;;
14116;SDS011;7137;51.436;6.544;2024-01-06T01:51:57;22.33;;;19.20;;
14116;SDS011;7137;51.436;6.544;2024-01-06T01:55:00;23.17;;;18.70;;
14116;SDS011;7137;51.436;6.544;2024-01-06T01:58:03;22.80;;;19.53;;
14116;SDS011;7137;51.436;6.544;2024-01-06T02:01:06;21.93;;;18.80;;
14116;SDS011;7137;51.436;6.544;2024-01-06T02:04:08;21.53;;;18.33;;
14116;SDS011;7137;51.436;6.544;2024-01-06T02:07:10;23.10;;;19.37;;
14116;SDS011;7137;51.436;6.544;2024-01-06T02:10:11;24.10;;;19.93;;
14116;SDS011;7137;51.436;6.544;2024-01-06T02:13:14;26.00;;;20.80;;
14116;SDS011;7137;51.436;6.544;2024-01-06T02:16:16;27.10;;;21.10;;
14116;SDS011;7137;51.436;6.544;2024-01-06T02:19:18;28.83;;;21.77;;
14116;SDS011;7137;51.436;6.544;2024-01-06T02:22:21;29.57;;;23.50;;
14116;SDS011;7137;51.436;6.544;2024-01-06T02:25:22;29.70;;;21.93;;
14116;SDS011;7137;51.436;6.544;2024-01-06T02:28:24;31.10;;;22.73;;
14116;SDS011;7137;51.436;6.544;2024-01-06T02:31:25;28.47;;;21.93;;
14116;SDS011;7137;51.436;6.544;2024-01-06T02:34:27;32.07;;;23.13;;
14116;SDS011;7137;51.436;6.544;2024-01-06T02:37:29;29.63;;;21.47;;
14116;SDS011;7137;51.436;6.544;2024-01-06T02:40:31;30.90;;;22.00;;
14116;SDS011;7137;51.436;6.544;2024-01-06T02:43:33;23.17;;;16.23;;
14116;SDS011;7137;51.436;6.544;2024-01-06T02:46:34;24.10;;;15.57;;
14116;SDS011;7137;51.436;6.544;2024-01-06T02:49:36;22.63;;;15.40;;
14116;SDS011;7137;51.436;6.544;2024-01-06T02:52:38;19.90;;;13.93;;
14116;SDS011;7137;51.436;6.544;2024-01-06T02:55:40;21.63;;;15.20;;
14116;SDS011;7137;51.436;6.544;2024-01-06T02:58:41;22.90;;;15.73;;
14116;SDS011;7137;51.436;6.544;2024-01-06T03:01:43;22.53;;;15.53;;
14116;SDS011;7137;51.436;6.544;2024-01-06T03:04:44;21.90;;;14.60;;
14116;SDS011;7137;51.436;6.544;2024-01-06T03:07:47;20.83;;;15.23;;
14116;SDS011;7137;51.436;6.544;2024-01-06T03:10:49;22.13;;;14.43;;
14116;SDS011;7137;51.436;6.544;2024-01-06T03:13:50;19.10;;;13.03;;
14116;SDS011;7137;51.436;6.544;2024-01-06T03:16:52;17.40;;;12.87;;
14116;SDS011;7137;51.436;6.544;2024-01-06T03:19:53;18.03;;;13.03;;
14116;SDS011;7137;51.436;6.544;2024-01-06T03:22:57;18.40;;;12.90;;
14116;SDS011;7137;51.436;6.544;2024-01-06T03:26:01;18.03;;;11.97;;
14116;SDS011;7137;51.436;6.544;2024-01-06T03:29:06;16.87;;;11.53;;
14116;SDS011;7137;51.436;6.544;2024-01-06T03:32:08;16.80;;;11.27;;
14116;SDS011;7137;51.436;6.544;2024-01-06T03:35:09;16.67;;;11.20;;
14116;SDS011;7137;51.436;6.544;2024-01-06T03:38:12;16.63;;;11.53;;
14116;SDS011;7137;51.436;6.544;2024-01-06T03:41:14;17.37;;;11.63;;
14116;SDS011;7137;51.436;6.544;2024-01-06T03:44:15;17.10;;;12.13;;
14116;SDS011;7137;51.436;6.544;2024-01-06T03:47:17;15.43;;;11.00;;
14116;SDS011;7137;51.436;6.544;2024-01-06T03:50:18;15.40;;;11.17;;
14116;SDS011;7137;51.436;6.544;2024-01-06T03:53:21;18.07;;;11.73;;
14116;SDS011;7137;51.436;6.544;2024-01-06T03:56:23;16.33;;;10.93;;
14116;SDS011;7137;51.436;6.544;2024-01-06T03:59:25;15.90;;;11.20;;
14116;SDS011;7137;51.436;6.544;2024-01-06T04:02:26;16.63;;;11.60;;
14116;SDS011;7137;51.436;6.544;2024-01-06T04:05:28;17.40;;;12.00;;
14116;SDS011;7137;51.436;6.544;2024-01-06T04:08:31;17.67;;;11.67;;
14116;SDS011;7137;51.436;6.544;2024-01-06T04:11:32;18.27;;;12.90;;
14116;SDS011;7137;51.436;6.544;2024-01-06T04:14:33;17.40;;;12.30;;
14116;SDS011;7137;51.436;6.544;2024-01-06T04:17:35;18.87;;;12.90;;
14116;SDS011;7137;51.436;6.544;2024-01-06T04:20:36;16.60;;;11.73;;
14116;SDS011;7137;51.436;6.544;2024-01-06T04:23:39;17.77;;;12.33;;
14116;SDS011;7137;51.436;6.544;2024-01-06T04:26:41;17.47;;;12.13;;
14116;SDS011;7137;51.436;6.544;2024-01-06T04:29:45;17.57;;;12.43;;
14116;SDS011;7137;51.436;6.544;2024-01-06T04:32:46;19.30;;;14.10;;
14116;SDS011;7137;51.436;6.544;2024-01-06T04:35:48;18.97;;;13.20;;
14116;SDS011;7137;51.436;6.544;2024-01-06T04:38:51;19.23;;;13.70;;
14116;SDS011;7137;51.436;6.544;2024-01-06T04:41:53;18.53;;;12.53;;
14116;SDS011;7137;51.436;6.544;2024-01-06T04:44:54;19.43;;;13.27;;
14116;SDS011;7137;51.436;6.544;2024-01-06T04:47:56;19.73;;;13.30;;
14116;SDS011;7137;51.436;6.544;2024-01-06T04:50:57;20.63;;;13.60;;
14116;SDS011;7137;51.436;6.544;2024-01-06T04:54:00;20.73;;;13.20;;
14116;SDS011;7137;51.436;6.544;2024-01-06T04:57:02;20.00;;;13.47;;
14116;SDS011;7137;51.436;6.544;2024-01-06T05:00:04;20.13;;;13.70;;
14116;SDS011;7137;51.436;6.544;2024-01-06T05:03:07;19.67;;;13.93;;
14116;SDS011;7137;51.436;6.544;2024-01-06T05:06:08;19.30;;;13.40;;
14116;SDS011;7137;51.436;6.544;2024-01-06T05:09:11;19.03;;;13.03;;
14116;SDS011;7137;51.436;6.544;2024-01-06T05:12:13;20.30;;;13.77;;
14116;SDS011;7137;51.436;6.544;2024-01-06T05:15:14;19.70;;;14.10;;
14116;SDS011;7137;51.436;6.544;2024-01-06T05:18:16;19.47;;;13.30;;
14116;SDS011;7137;51.436;6.544;2024-01-06T05:21:17;19.47;;;13.43;;
14116;SDS011;7137;51.436;6.544;2024-01-06T05:24:20;20.20;;;13.63;;
14116;SDS011;7137;51.436;6.544;2024-01-06T05:27:21;19.90;;;14.03;;
14116;SDS011;7137;51.436;6.544;2024-01-06T05:30:23;19.90;;;13.70;;
14116;SDS011;7137;51.436;6.544;2024-01-06T05:33:24;21.03;;;14.23;;
14116;SDS011;7137;51.436;6.544;2024-01-06T05:36:26;19.00;;;13.13;;
14116;SDS011;7137;51.436;6.544;2024-01-06T05:39:29;18.73;;;13.67;;
14116;SDS011;7137;51.436;6.544;2024-01-06T05:42:30;20.57;;;14.37;;
14116;SDS011;7137;51.436;6.544;2024-01-06T05:45:33;19.10;;;13.50;;
14116;SDS011;7137;51.436;6.544;2024-01-06T05:48:34;19.53;;;13.63;;
14116;SDS011;7137;51.436;6.544;2024-01-06T05:51:36;20.83;;;13.33;;
14116;SDS011;7137;51.436;6.544;2024-01-06T05:54:41;22.50;;;13.40;;
14116;SDS011;7137;51.436;6.544;2024-01-06T05:57:42;19.63;;;13.43;;
14116;SDS011;7137;51.436;6.544;2024-01-06T06:00:44;20.30;;;14.07;;
14116;SDS011;7137;51.436;6.544;2024-01-06T06:03:47;23.47;;;14.70;;
14116;SDS011;7137;51.436;6.544;2024-01-06T06:06:50;21.80;;;15.23;;
14116;SDS011;7137;51.436;6.544;2024-01-06T06:09:53;21.80;;;14.80;;
14116;SDS011;7137;51.436;6.544;2024-01-06T06:12:54;22.87;;;15.00;;
14116;SDS011;7137;51.436;6.544;2024-01-06T06:15:56;20.73;;;14.27;;
14116;SDS011;7137;51.436;6.544;2024-01-06T06:18:57;22.60;;;15.67;;
14116;SDS011;7137;51.436;6.544;2024-01-06T06:21:59;21.80;;;14.30;;
14116;SDS011;7137;51.436;6.544;2024-01-06T06:25:02;22.50;;;14.83;;
14116;SDS011;7137;51.436;6.544;2024-01-06T06:28:04;21.87;;;14.70;;
14116;SDS011;7137;51.436;6.544;2024-01-06T06:31:06;23.33;;;15.53;;
14116;SDS011;7137;51.436;6.544;2024-01-06T06:34:09;23.33;;;15.47;;
14116;SDS011;7137;51.436;6.544;2024-01-06T06:37:11;22.17;;;14.77;;
14116;SDS011;7137;51.436;6.544;2024-01-06T06:40:14;25.43;;;16.17;;
14116;SDS011;7137;51.436;6.544;2024-01-06T06:43:16;24.67;;;16.20;;
14116;SDS011;7137;51.436;6.544;2024-01-06T06:46:17;27.03;;;17.63;;
14116;SDS011;7137;51.436;6.544;2024-01-06T06:49:19;25.90;;;17.13;;
14116;SDS011;7137;51.436;6.544;2024-01-06T06:52:20;26.23;;;17.90;;
14116;SDS011;7137;51.436;6.544;2024-01-06T06:55:23;23.27;;;15.77;;
14116;SDS011;7137;51.436;6.544;2024-01-06T06:58:24;24.97;;;16.43;;
14116;SDS011;7137;51.436;6.544;2024-01-06T07:01:26;26.00;;;16.83;;
14116;SDS011;7137;51.436;6.544;2024-01-06T07:04:27;27.83;;;17.53;;
14116;SDS011;7137;51.436;6.544;2024-01-06T07:07:29;26.10;;;16.80;;
14116;SDS011;7137;51.436;6.544;2024-01-06T07:10:32;28.43;;;17.90;;
14116;SDS011;7137;51.436;6.544;2024-01-06T07:13:33;26.10;;;18.30;;
14116;SDS011;7137;51.436;6.544;2024-01-06T07:16:35;27.77;;;17.60;;
14116;SDS011;7137;51.436;6.544;2024-01-06T07:19:36;29.10;;;18.10;;
14116;SDS011;7137;51.436;6.544;2024-01-06T07:22:39;29.37;;;19.07;;
14116;SDS011;7137;51.436;6.544;2024-01-06T07:25:42;28.03;;;18.17;;
14116;SDS011;7137;51.436;6.544;2024-01-06T07:28:44;23.43;;;14.87;;
14116;SDS011;7137;51.436;6.544;2024-01-06T07:31:45;22.13;;;15.27;;
14116;SDS011;7137;51.436;6.544;2024-01-06T07:34:47;23.97;;;14.83;;
14116;SDS011;7137;51.436;6.544;2024-01-06T07:37:49;24.57;;;15.47;;
14116;SDS011;7137;51.436;6.544;2024-01-06T07:40:51;25.10;;;15.17;;
14116;SDS011;7137;51.436;6.544;2024-01-06T07:43:54;23.47;;;14.90;;
14116;SDS011;7137;51.436;6.544;2024-01-06T07:46:56;27.03;;;16.17;;
14116;SDS011;7137;51.436;6.544;2024-01-06T07:49:57;27.97;;;16.43;;
14116;SDS011;7137;51.436;6.544;2024-01-06T07:52:59;29.47;;;17.80;;
14116;SDS011;7137;51.436;6.544;2024-01-06T07:56:03;31.83;;;19.03;;
14116;SDS011;7137;51.436;6.544;2024-01-06T07:59:05;34.23;;;18.80;;
14116;SDS011;7137;51.436;6.544;2024-01-06T08:02:06;31.97;;;19.47;;
14116;SDS011;7137;51.436;6.544;2024-01-06T08:05:08;33.87;;;19.37;;
14116;SDS011;7137;51.436;6.544;2024-01-06T08:08:10;36.47;;;20.43;;
14116;SDS011;7137;51.436;6.544;2024-01-06T08:11:14;38.27;;;20.77;;
14116;SDS011;7137;51.436;6.544;2024-01-06T08:14:16;36.10;;;19.83;;
14116;SDS011;7137;51.436;6.544;2024-01-06T08:17:17;35.57;;;20.90;;
14116;SDS011;7137;51.436;6.544;2024-01-06T08:20:19;38.10;;;21.80;;
14116;SDS011;7137;51.436;6.544;2024-01-06T08:23:20;39.40;;;22.40;;
14116;SDS011;7137;51.436;6.544;2024-01-06T08:26:23;38.03;;;20.90;;
14116;SDS011;7137;51.436;6.544;2024-01-06T08:29:25;40.90;;;22.87;;
14116;SDS011;7137;51.436;6.544;2024-01-06T08:32:26;41.50;;;22.33;;
14116;SDS011;7137;51.436;6.544;2024-01-06T08:35:28;41.53;;;22.50;;
14116;SDS011;7137;51.436;6.544;2024-01-06T08:38:30;44.40;;;22.97;;
14116;SDS011;7137;51.436;6.544;2024-01-06T08:41:33;42.13;;;23.07;;
14116;SDS011;7137;51.436;6.544;2024-01-06T08:44:34;42.93;;;22.87;;
14116;SDS011;7137;51.436;6.544;2024-01-06T08:47:36;48.30;;;25.77;;
14116;SDS011;7137;51.436;6.544;2024-01-06T08:50:38;42.10;;;22.87;;
14116;SDS011;7137;51.436;6.544;2024-01-06T08:53:39;41.60;;;20.87;;
14116;SDS011;7137;51.436;6.544;2024-01-06T08:56:42;42.80;;;22.97;;
14116;SDS011;7137;51.436;6.544;2024-01-06T08:59:44;43.47;;;22.77;;
14116;SDS011;7137;51.436;6.544;2024-01-06T09:02:46;40.63;;;22.53;;
14116;SDS011;7137;51.436;6.544;2024-01-06T09:05:47;45.03;;;24.23;;
14116;SDS011;7137;51.436;6.544;2024-01-06T09:08:49;47.30;;;24.10;;
14116;SDS011;7137;51.436;6.544;2024-01-06T09:11:51;41.10;;;23.27;;
14116;SDS011;7137;51.436;6.544;2024-01-06T09:14:53;46.33;;;24.90;;
14116;SDS011;7137;51.436;6.544;2024-01-06T09:17:54;43.73;;;23.17;;
14116;SDS011;7137;51.436;6.544;2024-01-06T09:20:56;40.27;;;22.70;;
14116;SDS011;7137;51.436;6.544;2024-01-06T09:23:57;43.63;;;22.90;;
14116;SDS011;7137;51.436;6.544;2024-01-06T09:27:02;41.93;;;22.30;;
14116;SDS011;7137;51.436;6.544;2024-01-06T09:30:04;41.30;;;24.20;;
14116;SDS011;7137;51.436;6.544;2024-01-06T09:33:06;42.63;;;22.73;;
14116;SDS011;7137;51.436;6.544;2024-01-06T09:36:08;41.60;;;22.93;;
14116;SDS011;7137;51.436;6.544;2024-01-06T09:39:12;36.93;;;21.67;;
14116;SDS011;7137;51.436;6.544;2024-01-06T09:42:15;40.57;;;21.97;;
14116;SDS011;7137;51.436;6.544;2024-01-06T09:45:17;35.27;;;20.53;;
14116;SDS011;7137;51.436;6.544;2024-01-06T09:48:20;35.53;;;18.77;;
14116;SDS011;7137;51.436;6.544;2024-01-06T09:51:29;33.33;;;19.37;;
14116;SDS011;7137;51.436;6.544;2024-01-06T09:54:30;33.43;;;20.07;;
14116;SDS011;7137;51.436;6.544;2024-01-06T09:57:37;38.17;;;21.37;;
14116;SDS011;7137;51.436;6.544;2024-01-06T10:00:38;38.07;;;21.70;;
14116;SDS011;7137;51.436;6.544;2024-01-06T10:03:40;40.97;;;23.10;;
14116;SDS011;7137;51.436;6.544;2024-01-06T10:06:41;38.07;;;20.53;;
14116;SDS011;7137;51.436;6.544;2024-01-06T10:09:43;34.17;;;20.70;;
14116;SDS011;7137;51.436;6.544;2024-01-06T10:12:46;36.47;;;20.13;;
14116;SDS011;7137;51.436;6.544;2024-01-06T10:15:47;36.37;;;19.47;;
14116;SDS011;7137;51.436;6.544;2024-01-06T10:18:49;37.47;;;20.87;;
14116;SDS011;7137;51.436;6.544;2024-01-06T10:21:50;36.20;;;22.70;;
14116;SDS011;7137;51.436;6.544;2024-01-06T10:24:53;36.30;;;21.33;;
14116;SDS011;7137;51.436;6.544;2024-01-06T10:27:57;34.53;;;21.10;;
14116;SDS011;7137;51.436;6.544;2024-01-06T10:31:02;36.23;;;21.00;;
14116;SDS011;7137;51.436;6.544;2024-01-06T10:34:03;32.67;;;20.00;;
14116;SDS011;7137;51.436;6.544;2024-01-06T10:37:06;34.13;;;21.70;;
14116;SDS011;7137;51.436;6.544;2024-01-06T10:40:08;32.67;;;21.13;;
14116;SDS011;7137;51.436;6.544;2024-01-06T10:43:12;33.50;;;19.43;;
14116;SDS011;7137;51.436;6.544;2024-01-06T10:46:14;34.53;;;20.77;;
14116;SDS011;7137;51.436;6.544;2024-01-06T10:49:17;34.60;;;20.37;;
14116;SDS011;7137;51.436;6.544;2024-01-06T10:52:20;37.10;;;23.53;;
14116;SDS011;7137;51.436;6.544;2024-01-06T10:55:23;36.30;;;22.63;;
14116;SDS011;7137;51.436;6.544;2024-01-06T10:58:28;37.10;;;22.27;;
14116;SDS011;7137;51.436;6.544;2024-01-06T11:01:31;34.97;;;22.07;;
14116;SDS011;7137;51.436;6.544;2024-01-06T11:04:34;34.70;;;21.80;;
14116;SDS011;7137;51.436;6.544;2024-01-06T11:07:37;34.93;;;21.33;;
14116;SDS011;7137;51.436;6.544;2024-01-06T11:10:40;32.93;;;20.70;;
14116;SDS011;7137;51.436;6.544;2024-01-06T11:13:43;30.77;;;19.77;;
14116;SDS011;7137;51.436;6.544;2024-01-06T11:16:46;31.33;;;19.50;;
14116;SDS011;7137;51.436;6.544;2024-01-06T11:19:48;30.50;;;19.87;;
14116;SDS011;7137;51.436;6.544;2024-01-06T11:22:55;31.53;;;19.30;;
14116;SDS011;7137;51.436;6.544;2024-01-06T11:26:18;31.57;;;18.30;;
14116;SDS011;7137;51.436;6.544;2024-01-06T11:29:21;31.03;;;19.83;;
14116;SDS011;7137;51.436;6.544;2024-01-06T11:32:28;32.70;;;20.10;;
14116;SDS011;7137;51.436;6.544;2024-01-06T11:35:30;34.27;;;20.27;;
14116;SDS011;7137;51.436;6.544;2024-01-06T11:38:33;32.27;;;20.17;;
14116;SDS011;7137;51.436;6.544;2024-01-06T11:41:50;34.03;;;21.20;;
14116;SDS011;7137;51.436;6.544;2024-01-06T11:44:53;33.03;;;21.33;;
14116;SDS011;7137;51.436;6.544;2024-01-06T11:48:03;32.43;;;21.13;;
14116;SDS011;7137;51.436;6.544;2024-01-06T11:51:06;32.93;;;22.10;;
14116;SDS011;7137;51.436;6.544;2024-01-06T11:54:08;32.27;;;21.17;;
14116;SDS011;7137;51.436;6.544;2024-01-06T11:57:10;31.90;;;19.80;;
14116;SDS011;7137;51.436;6.544;2024-01-06T12:00:14;32.07;;;19.60;;
14116;SDS011;7137;51.436;6.544;2024-01-06T12:03:16;31.43;;;20.00;;
14116;SDS011;7137;51.436;6.544;2024-01-06T12:06:19;34.93;;;21.57;;
14116;SDS011;7137;51.436;6.544;2024-01-06T12:09:22;31.17;;;20.07;;
14116;SDS011;7137;51.436;6.544;2024-01-06T12:12:26;29.73;;;18.60;;
14116;SDS011;7137;51.436;6.544;2024-01-06T12:15:29;31.07;;;19.83;;
14116;SDS011;7137;51.436;6.544;2024-01-06T12:18:32;35.13;;;20.70;;
14116;SDS011;7137;51.436;6.544;2024-01-06T12:21:33;31.80;;;18.40;;
14116;SDS011;7137;51.436;6.544;2024-01-06T12:24:37;31.27;;;19.73;;
14116;SDS011;7137;51.436;6.544;2024-01-06T12:27:41;31.67;;;20.23;;
14116;SDS011;7137;51.436;6.544;2024-01-06T12:30:45;37.80;;;20.30;;
14116;SDS011;7137;51.436;6.544;2024-01-06T12:33:46;36.50;;;21.13;;
14116;SDS011;7137;51.436;6.544;2024-01-06T12:36:48;36.37;;;21.77;;
14116;SDS011;7137;51.436;6.544;2024-01-06T12:39:54;34.50;;;20.80;;
14116;SDS011;7137;51.436;6.544;2024-01-06T12:42:58;33.33;;;19.03;;
14116;SDS011;7137;51.436;6.544;2024-01-06T12:46:01;32.00;;;18.17;;
14116;SDS011;7137;51.436;6.544;2024-01-06T12:49:02;33.77;;;20.40;;
14116;SDS011;7137;51.436;6.544;2024-01-06T12:52:04;32.67;;;18.60;;
14116;SDS011;7137;51.436;6.544;2024-01-06T12:55:06;34.83;;;20.20;;
14116;SDS011;7137;51.436;6.544;2024-01-06T12:58:08;32.77;;;20.07;;
14116;SDS011;7137;51.436;6.544;2024-01-06T13:01:12;36.33;;;19.60;;
14116;SDS011;7137;51.436;6.544;2024-01-06T13:04:14;38.70;;;21.57;;
14116;SDS011;7137;51.436;6.544;2024-01-06T13:07:15;36.77;;;21.10;;
14116;SDS011;7137;51.436;6.544;2024-01-06T13:10:17;39.77;;;22.40;;
14116;SDS011;7137;51.436;6.544;2024-01-06T13:13:19;37.00;;;21.73;;
14116;SDS011;7137;51.436;6.544;2024-01-06T13:16:21;36.07;;;21.90;;
14116;SDS011;7137;51.436;6.544;2024-01-06T13:19:23;35.23;;;21.40;;
14116;SDS011;7137;51.436;6.544;2024-01-06T13:22:24;36.10;;;20.93;;
14116;SDS011;7137;51.436;6.544;2024-01-06T13:25:26;33.97;;;20.97;;
14116;SDS011;7137;51.436;6.544;2024-01-06T13:28:28;30.03;;;17.10;;
14116;SDS011;7137;51.436;6.544;2024-01-06T13:31:31;31.00;;;16.87;;
14116;SDS011;7137;51.436;6.544;2024-01-06T13:34:33;29.30;;;17.23;;
14116;SDS011;7137;51.436;6.544;2024-01-06T13:37:35;28.20;;;16.03;;
14116;SDS011;7137;51.436;6.544;2024-01-06T13:40:36;29.60;;;17.07;;
14116;SDS011;7137;51.436;6.544;2024-01-06T13:43:38;29.10;;;16.93;;
14116;SDS011;7137;51.436;6.544;2024-01-06T13:46:41;29.20;;;17.00;;
14116;SDS011;7137;51.436;6.544;2024-01-06T13:49:44;26.50;;;17.03;;
14116;SDS011;7137;51.436;6.544;2024-01-06T13:52:46;28.80;;;17.47;;
14116;SDS011;7137;51.436;6.544;2024-01-06T13:55:48;31.00;;;18.63;;
14116;SDS011;7137;51.436;6.544;2024-01-06T13:58:50;26.87;;;17.93;;
14116;SDS011;7137;51.436;6.544;2024-01-06T14:01:53;25.33;;;17.87;;
14116;SDS011;7137;51.436;6.544;2024-01-06T14:04:55;26.20;;;18.53;;
14116;SDS011;7137;51.436;6.544;2024-01-06T14:07:56;24.57;;;17.87;;
14116;SDS011;7137;51.436;6.544;2024-01-06T14:10:58;27.87;;;18.00;;
14116;SDS011;7137;51.436;6.544;2024-01-06T14:14:00;26.43;;;18.67;;
14116;SDS011;7137;51.436;6.544;2024-01-06T14:17:03;26.90;;;17.60;;
14116;SDS011;7137;51.436;6.544;2024-01-06T14:20:05;26.63;;;18.07;;
14116;SDS011;7137;51.436;6.544;2024-01-06T14:23:09;27.53;;;19.43;;
14116;SDS011;7137;51.436;6.544;2024-01-06T14:26:11;29.53;;;19.13;;
14116;SDS011;7137;51.436;6.544;2024-01-06T14:29:12;30.57;;;19.63;;
14116;SDS011;7137;51.436;6.544;2024-01-06T14:32:17;29.37;;;18.63;;
14116;SDS011;7137;51.436;6.544;2024-01-06T14:35:19;26.77;;;16.93;;
14116;SDS011;7137;51.436;6.544;2024-01-06T14:38:21;25.27;;;17.67;;
14116;SDS011;7137;51.436;6.544;2024-01-06T14:41:23;30.23;;;19.13;;
14116;SDS011;7137;51.436;6.544;2024-01-06T14:44:24;38.53;;;22.80;;
14116;SDS011;7137;51.436;6.544;2024-01-06T14:47:29;28.83;;;19.53;;
14116;SDS011;7137;51.436;6.544;2024-01-06T14:50:32;26.47;;;19.07;;
14116;SDS011;7137;51.436;6.544;2024-01-06T14:53:34;26.27;;;18.47;;
14116;SDS011;7137;51.436;6.544;2024-01-06T14:56:37;23.70;;;17.90;;
14116;SDS011;7137;51.436;6.544;2024-01-06T14:59:39;26.10;;;17.70;;
14116;SDS011;7137;51.436;6.544;2024-01-06T15:02:43;24.73;;;17.50;;
14116;SDS011;7137;51.436;6.544;2024-01-06T15:05:46;22.40;;;17.80;;
14116;SDS011;7137;51.436;6.544;2024-01-06T15:08:47;23.13;;;18.27;;
14116;SDS011;7137;51.436;6.544;2024-01-06T15:11:49;23.33;;;17.50;;
14116;SDS011;7137;51.436;6.544;2024-01-06T15:14:51;23.77;;;18.63;;
14116;SDS011;7137;51.436;6.544;2024-01-06T15:17:54;23.13;;;17.77;;
14116;SDS011;7137;51.436;6.544;2024-01-06T15:20:55;25.13;;;18.83;;
14116;SDS011;7137;51.436;6.544;2024-01-06T15:23:57;23.60;;;18.37;;
14116;SDS011;7137;51.436;6.544;2024-01-06T15:26:59;22.90;;;18.73;;
14116;SDS011;7137;51.436;6.544;2024-01-06T15:30:00;21.83;;;16.77;;
14116;SDS011;7137;51.436;6.544;2024-01-06T15:33:08;20.63;;;16.73;;
14116;SDS011;7137;51.436;6.544;2024-01-06T15:36:09;23.57;;;17.67;;
14116;SDS011;7137;51.436;6.544;2024-01-06T15:39:11;21.73;;;17.83;;
14116;SDS011;7137;51.436;6.544;2024-01-06T15:42:13;20.73;;;17.77;;
14116;SDS011;7137;51.436;6.544;2024-01-06T15:45:15;20.23;;;17.07;;
14116;SDS011;7137;51.436;6.544;2024-01-06T15:48:18;21.47;;;17.37;;
14116;SDS011;7137;51.436;6.544;2024-01-06T15:51:20;21.67;;;17.53;;
14116;SDS011;7137;51.436;6.544;2024-01-06T15:54:23;21.17;;;17.17;;
14116;SDS011;7137;51.436;6.544;2024-01-06T15:57:24;20.93;;;17.23;;
14116;SDS011;7137;51.436;6.544;2024-01-06T16:00:28;21.20;;;16.50;;
14116;SDS011;7137;51.436;6.544;2024-01-06T16:03:31;21.83;;;16.37;;
14116;SDS011;7137;51.436;6.544;2024-01-06T16:06:32;20.10;;;15.57;;
14116;SDS011;7137;51.436;6.544;2024-01-06T16:09:34;20.27;;;15.57;;
14116;SDS011;7137;51.436;6.544;2024-01-06T16:12:38;20.93;;;16.60;;
14116;SDS011;7137;51.436;6.544;2024-01-06T16:15:40;21.30;;;16.77;;
14116;SDS011;7137;51.436;6.544;2024-01-06T16:18:43;20.83;;;15.53;;
14116;SDS011;7137;51.436;6.544;2024-01-06T16:21:45;23.23;;;17.00;;
14116;SDS011;7137;51.436;6.544;2024-01-06T16:24:48;22.57;;;17.00;;
14116;SDS011;7137;51.436;6.544;2024-01-06T16:27:49;21.83;;;17.00;;
14116;SDS011;7137;51.436;6.544;2024-01-06T16:30:51;22.43;;;16.60;;
14116;SDS011;7137;51.436;6.544;2024-01-06T16:33:54;21.43;;;16.17;;
14116;SDS011;7137;51.436;6.544;2024-01-06T16:36:55;21.80;;;17.10;;
14116;SDS011;7137;51.436;6.544;2024-01-06T16:39:57;22.70;;;17.10;;
14116;SDS011;7137;51.436;6.544;2024-01-06T16:42:59;23.73;;;17.03;;
14116;SDS011;7137;51.436;6.544;2024-01-06T16:46:00;23.83;;;17.40;;
14116;SDS011;7137;51.436;6.544;2024-01-06T16:49:03;23.60;;;17.70;;
14116;SDS011;7137;51.436;6.544;2024-01-06T16:52:05;21.23;;;15.47;;
14116;SDS011;7137;51.436;6.544;2024-01-06T16:55:07;20.20;;;15.47;;
14116;SDS011;7137;51.436;6.544;2024-01-06T16:58:09;20.80;;;15.90;;
14116;SDS011;7137;51.436;6.544;2024-01-06T17:01:10;21.10;;;15.90;;
14116;SDS011;7137;51.436;6.544;2024-01-06T17:04:15;19.93;;;15.77;;
14116;SDS011;7137;51.436;6.544;2024-01-06T17:07:17;21.27;;;15.60;;
14116;SDS011;7137;51.436;6.544;2024-01-06T17:10:18;20.20;;;15.73;;
14116;SDS011;7137;51.436;6.544;2024-01-06T17:13:20;19.90;;;15.53;;
14116;SDS011;7137;51.436;6.544;2024-01-06T17:16:22;19.37;;;15.40;;
14116;SDS011;7137;51.436;6.544;2024-01-06T17:19:24;20.53;;;16.07;;
14116;SDS011;7137;51.436;6.544;2024-01-06T17:22:26;20.47;;;16.03;;
14116;SDS011;7137;51.436;6.544;2024-01-06T17:25:28;22.50;;;16.50;;
14116;SDS011;7137;51.436;6.544;2024-01-06T17:28:30;21.37;;;15.80;;
14116;SDS011;7137;51.436;6.544;2024-01-06T17:31:32;21.00;;;16.17;;
14116;SDS011;7137;51.436;6.544;2024-01-06T17:34:35;22.00;;;15.80;;
14116;SDS011;7137;51.436;6.544;2024-01-06T17:37:36;21.33;;;16.67;;
14116;SDS011;7137;51.436;6.544;2024-01-06T17:40:38;22.10;;;17.97;;
14116;SDS011;7137;51.436;6.544;2024-01-06T17:43:40;20.30;;;16.30;;
14116;SDS011;7137;51.436;6.544;2024-01-06T17:46:41;18.47;;;15.60;;
14116;SDS011;7137;51.436;6.544;2024-01-06T17:49:44;19.97;;;16.57;;
14116;SDS011;7137;51.436;6.544;2024-01-06T17:52:46;19.77;;;15.97;;
14116;SDS011;7137;51.436;6.544;2024-01-06T17:55:49;21.17;;;16.03;;
14116;SDS011;7137;51.436;6.544;2024-01-06T17:58:50;19.97;;;15.47;;
14116;SDS011;7137;51.436;6.544;2024-01-06T18:01:52;18.83;;;15.73;;